Terminal Aerodrome Forecast
Issued by NWS Sioux Falls, SD

Home | Current Version | Previous Version | Graphics & Text | Print | Product List | Glossary Off
Versions: 1 2 3 4 5 6 7 8 9 10 11 12 13 14 15 16 17 18 19 20 21

000
FTUS43 KFSD 041122
TAFHON
TAF
KHON 041122Z 0412/0512 16004KT 6SM FU SKC
      TEMPO 0412/0413 3SM FU
     FM041300 16008KT P6SM SCT250
     FM041700 17013KT P6SM SCT040 SCT250
     FM050100 15011KT P6SM SCT040 BKN120=

USA.gov is the U.S. government's official web portal to all federal, state and local government web resources and services.